Time;durP1;ratioP1;P1;durP2;ratioP2;P2;SDS_P1;SDS_P2;PMS_P1;PMS_P2;Temp;Humidity;BMP_temperature;BMP_pressure;BME280_temperature;BME280_humidity;BME280_pressure;Samples;Min_cycle;Max_cycle;Signal;HPM_P1;HPM_P2
2021/04/22 00:02:12;;;;;;;;;;;14.90;90.20;;;;;;4994768;28;20304;-68
2021/04/22 00:04:38;;;;;;;;;;;14.90;87.00;;;;;;4994684;28;19910;-68
2021/04/22 00:07:05;;;;;;;;;;;14.80;87.80;;;;;;4994424;28;19921;-69
2021/04/22 00:09:33;;;;;;;;;;;14.90;89.20;;;;;;4995056;28;19956;-68
2021/04/22 00:12:00;;;;;;;;;;;14.90;88.40;;;;;;4995193;28;19949;-68
2021/04/22 00:14:29;;;;;;;;;;;15.00;88.90;;;;;;4995084;28;19910;-68
2021/04/22 00:16:56;;;;;;;;;;;15.00;89.00;;;;;;4996052;28;19964;-68
2021/04/22 00:19:23;;;;;;;;;;;15.00;89.10;;;;;;4998234;28;19910;-68
2021/04/22 00:21:49;;;;;;;;;;;15.10;86.90;;;;;;4994539;28;20372;-69
2021/04/22 00:24:16;;;;;;;;;;;15.00;87.20;;;;;;4994454;28;19910;-70
2021/04/22 00:26:46;;;;;;;;;;;15.10;87.30;;;;;;4993883;28;19910;-69
2021/04/22 00:29:15;;;;;;;;;;;15.20;87.40;;;;;;4994390;28;20049;-69
2021/04/22 00:31:42;;;;;;;;;;;15.30;86.20;;;;;;4994376;28;20420;-70
2021/04/22 00:34:08;;;;;;;;;;;15.30;86.30;;;;;;4994117;28;19961;-68
2021/04/22 00:36:35;;;;;;;;;;;15.30;86.80;;;;;;4993995;28;19914;-71
2021/04/22 00:39:02;;;;;;;;;;;15.40;86.20;;;;;;4993759;28;19948;-69
2021/04/22 00:41:28;;;;;;;;;;;15.40;85.90;;;;;;4994383;28;19961;-70
2021/04/22 00:43:56;;;;;;;;;;;15.50;86.10;;;;;;4994133;28;20264;-69
2021/04/22 00:46:23;;;;;;;;;;;15.70;85.30;;;;;;4994384;28;20387;-71
2021/04/22 00:48:50;;;;;;;;;;;15.80;85.80;;;;;;4993744;28;19924;-69
2021/04/22 00:51:16;;;;;;;;;;;16.20;83.50;;;;;;4993975;28;20276;-70
2021/04/22 00:53:43;;;;;;;;;;;16.30;82.50;;;;;;4994164;28;19992;-70
2021/04/22 00:56:11;;;;;;;;;;;16.20;82.40;;;;;;4993535;28;19953;-70
2021/04/22 00:58:37;;;;;;;;;;;16.20;80.30;;;;;;4994062;28;19964;-70
2021/04/22 01:01:04;;;;;;;;;;;16.60;82.10;;;;;;4993675;28;20005;-69
2021/04/22 01:03:31;;;;;;;;;;;16.80;80.10;;;;;;4993693;28;19956;-69
2021/04/22 01:05:59;;;;;;;;;;;16.80;80.30;;;;;;4993632;28;19917;-69
2021/04/22 01:08:26;;;;;;;;;;;17.10;81.00;;;;;;4993673;28;20276;-70
2021/04/22 01:10:53;;;;;;;;;;;17.90;79.50;;;;;;4993560;28;19910;-69
2021/04/22 01:13:20;;;;;;;;;;;17.90;77.30;;;;;;4993692;28;19936;-70
2021/04/22 01:15:47;;;;;;;;;;;17.70;76.60;;;;;;4992361;28;20380;-69
2021/04/22 01:18:14;;;;;;;;;;;17.50;77.20;;;;;;4993805;28;19910;-69
2021/04/22 01:20:42;;;;;;;;;;;17.60;78.10;;;;;;4976196;28;19914;-69
2021/04/22 01:23:09;;;;;;;;;;;18.70;77.00;;;;;;4993493;28;19910;-68
2021/04/22 01:25:40;;;;;;;;;;;19.20;74.10;;;;;;4992156;28;19914;-70
2021/04/22 01:28:09;;;;;;;;;;;19.90;70.50;;;;;;4993403;28;19917;-68
2021/04/22 01:30:39;;;;;;;;;;;19.70;71.40;;;;;;4993409;28;20284;-67
2021/04/22 01:33:06;;;;;;;;;;;19.30;71.70;;;;;;4993412;28;20365;-67
2021/04/22 01:35:36;;;;;;;;;;;18.70;73.20;;;;;;4993347;28;19948;-68
2021/04/22 01:38:03;;;;;;;;;;;18.40;71.70;;;;;;4992424;28;19941;-68
2021/04/22 01:40:31;;;;;;;;;;;18.00;73.80;;;;;;4993397;28;19921;-68
2021/04/22 01:42:57;;;;;;;;;;;18.20;73.10;;;;;;4993299;28;19910;-67
2021/04/22 01:45:25;;;;;;;;;;;18.00;73.50;;;;;;4994482;28;20284;-68
2021/04/22 01:47:53;;;;;;;;;;;18.10;73.90;;;;;;4995183;28;19940;-68
2021/04/22 01:50:21;;;;;;;;;;;18.40;73.60;;;;;;4997477;28;19952;-68
2021/04/22 01:52:47;;;;;;;;;;;18.40;72.30;;;;;;4994049;28;19944;-69
2021/04/22 01:55:17;;;;;;;;;;;18.50;72.70;;;;;;4993239;28;19917;-68
2021/04/22 01:57:44;;;;;;;;;;;18.40;73.20;;;;;;4976068;28;19910;-70
2021/04/22 02:00:15;;;;;;;;;;;18.00;71.60;;;;;;4993439;28;19910;-70
2021/04/22 02:02:42;;;;;;;;;;;17.80;73.10;;;;;;4993288;28;19917;-69
2021/04/22 02:05:10;;;;;;;;;;;17.70;72.10;;;;;;4993218;28;19909;-70
2021/04/22 02:07:37;;;;;;;;;;;17.60;74.60;;;;;;4993851;28;19922;-70
2021/04/22 02:10:05;;;;;;;;;;;17.60;72.90;;;;;;4997022;28;19910;-70
2021/04/22 02:12:32;;;;;;;;;;;17.60;72.10;;;;;;4996702;28;19914;-69
2021/04/22 02:14:59;;;;;;;;;;;17.50;72.20;;;;;;4996535;28;19910;-70
2021/04/22 02:17:26;;;;;;;;;;;17.50;70.90;;;;;;4996919;28;19909;-69
2021/04/22 02:19:52;;;;;;;;;;;17.50;70.00;;;;;;4996552;28;19963;-69
2021/04/22 02:22:19;;;;;;;;;;;17.60;70.30;;;;;;4996498;28;19917;-70
2021/04/22 02:24:49;;;;;;;;;;;17.60;71.00;;;;;;4996106;28;19909;-69
2021/04/22 02:27:15;;;;;;;;;;;17.70;71.20;;;;;;4996226;28;20343;-69
2021/04/22 02:29:42;;;;;;;;;;;17.70;68.90;;;;;;4996255;28;19914;-68
2021/04/22 02:32:09;;;;;;;;;;;17.70;68.20;;;;;;4996318;28;19910;-70
2021/04/22 02:34:36;;;;;;;;;;;17.60;67.90;;;;;;4994948;28;19918;-69
2021/04/22 02:37:02;;;;;;;;;;;17.60;67.30;;;;;;4995916;28;19910;-69
2021/04/22 02:39:29;;;;;;;;;;;17.50;67.60;;;;;;4995922;28;19914;-70
2021/04/22 02:41:56;;;;;;;;;;;17.40;68.40;;;;;;4996066;28;19921;-69
2021/04/22 02:44:22;;;;;;;;;;;17.40;66.40;;;;;;4996115;28;19910;-69
2021/04/22 02:46:49;;;;;;;;;;;17.40;67.80;;;;;;4995771;28;20352;-69
2021/04/22 02:49:16;;;;;;;;;;;17.40;69.70;;;;;;4995958;28;20420;-70
2021/04/22 02:51:42;;;;;;;;;;;17.50;67.80;;;;;;4996158;28;19914;-69
2021/04/22 02:54:10;;;;;;;;;;;17.60;67.00;;;;;;4996062;28;19917;-69
2021/04/22 02:56:37;;;;;;;;;;;17.60;66.40;;;;;;4996025;28;20364;-68
2021/04/22 02:59:03;;;;;;;;;;;17.60;65.60;;;;;;4995699;28;19910;-69
2021/04/22 03:01:30;;;;;;;;;;;17.60;64.70;;;;;;4996021;28;19938;-68
2021/04/22 03:03:57;;;;;;;;;;;17.50;62.40;;;;;;4997592;28;19913;-69
2021/04/22 03:06:23;;;;;;;;;;;17.60;63.90;;;;;;5003427;28;20016;-69
2021/04/22 03:08:50;;;;;;;;;;;17.70;67.20;;;;;;4994678;28;19924;-69
2021/04/22 03:11:17;;;;;;;;;;;17.70;64.50;;;;;;4994882;28;19960;-69
2021/04/22 03:13:43;;;;;;;;;;;17.70;64.30;;;;;;4994594;28;20365;-68
2021/04/22 03:16:10;;;;;;;;;;;17.70;64.10;;;;;;4998271;28;19913;-69
2021/04/22 03:18:37;;;;;;;;;;;17.70;66.40;;;;;;5015064;28;19981;-69
2021/04/22 03:21:03;;;;;;;;;;;17.80;63.30;;;;;;5014277;28;19914;-69
2021/04/22 03:23:30;;;;;;;;;;;17.90;63.30;;;;;;5014392;28;20288;-69
2021/04/22 03:25:57;;;;;;;;;;;18.10;62.10;;;;;;5014923;28;19910;-69
2021/04/22 03:28:24;;;;;;;;;;;18.20;62.30;;;;;;5015031;28;19924;-70
2021/04/22 03:30:50;;;;;;;;;;;18.20;61.80;;;;;;5014692;28;19956;-69
2021/04/22 03:33:17;;;;;;;;;;;18.20;64.00;;;;;;5014945;28;19917;-69
2021/04/22 03:35:43;;;;;;;;;;;18.20;63.70;;;;;;5014729;28;19996;-68
2021/04/22 03:38:10;;;;;;;;;;;18.40;63.50;;;;;;5014740;28;19916;-69
2021/04/22 03:40:37;;;;;;;;;;;18.50;65.70;;;;;;5014585;28;19925;-69
2021/04/22 03:43:07;;;;;;;;;;;18.50;64.20;;;;;;5014399;28;19913;-68
2021/04/22 03:45:33;;;;;;;;;;;18.60;64.20;;;;;;4997719;28;20443;-68
2021/04/22 03:48:00;;;;;;;;;;;18.50;64.00;;;;;;5014441;28;19936;-69
2021/04/22 03:50:26;;;;;;;;;;;18.50;65.10;;;;;;5014683;28;19928;-68
2021/04/22 03:52:53;;;;;;;;;;;18.50;64.70;;;;;;5014115;28;19909;-68
2021/04/22 03:55:20;;;;;;;;;;;18.40;64.40;;;;;;5014425;28;19996;-69
2021/04/22 03:57:47;;;;;;;;;;;18.40;64.30;;;;;;5014172;28;19917;-67
2021/04/22 04:00:15;;;;;;;;;;;18.50;64.30;;;;;;5014348;28;19910;-67
2021/04/22 04:02:41;;;;;;;;;;;18.40;65.70;;;;;;5014371;28;19917;-69
2021/04/22 04:05:08;;;;;;;;;;;18.40;65.00;;;;;;5013239;28;19909;-68
2021/04/22 04:07:36;;;;;;;;;;;18.30;65.30;;;;;;5014018;28;20385;-68
2021/04/22 04:10:03;;;;;;;;;;;18.40;65.80;;;;;;5014012;28;19988;-70
2021/04/22 04:12:30;;;;;;;;;;;18.50;65.50;;;;;;5014350;28;19960;-70
2021/04/22 04:14:57;;;;;;;;;;;18.50;65.00;;;;;;5013804;28;19909;-69
2021/04/22 04:17:23;;;;;;;;;;;18.40;66.10;;;;;;5013604;28;19910;-69
2021/04/22 04:19:50;;;;;;;;;;;18.40;65.10;;;;;;5016891;28;20419;-69
2021/04/22 04:22:20;;;;;;;;;;;18.40;66.30;;;;;;5016193;28;20361;-68
2021/04/22 04:24:47;;;;;;;;;;;18.40;67.00;;;;;;5018478;28;20366;-68
2021/04/22 04:27:14;;;;;;;;;;;18.40;65.60;;;;;;5013946;28;19916;-69
2021/04/22 04:29:40;;;;;;;;;;;18.50;65.40;;;;;;5013797;28;19909;-68
2021/04/22 04:32:07;;;;;;;;;;;18.50;66.20;;;;;;5012870;28;20274;-70
2021/04/22 04:34:34;;;;;;;;;;;18.50;65.80;;;;;;5013542;28;20252;-68
2021/04/22 04:37:04;;;;;;;;;;;18.50;65.10;;;;;;5013561;28;19910;-68
2021/04/22 04:39:31;;;;;;;;;;;18.60;66.20;;;;;;4995915;28;19917;-67
2021/04/22 04:41:58;;;;;;;;;;;18.60;66.90;;;;;;5013666;28;19909;-67
2021/04/22 04:44:25;;;;;;;;;;;18.60;66.10;;;;;;5013617;28;19909;-68
2021/04/22 04:46:51;;;;;;;;;;;18.60;64.50;;;;;;4995738;28;19940;-68
2021/04/22 04:49:21;;;;;;;;;;;18.50;65.10;;;;;;5013448;28;20394;-69
2021/04/22 04:51:47;;;;;;;;;;;18.50;66.00;;;;;;5013580;28;19909;-67
2021/04/22 04:54:14;;;;;;;;;;;18.40;65.60;;;;;;5013433;28;20000;-70
2021/04/22 04:56:41;;;;;;;;;;;18.40;65.20;;;;;;5013461;28;20011;-69
2021/04/22 04:59:08;;;;;;;;;;;18.40;65.00;;;;;;5013567;28;19915;-68
2021/04/22 05:01:34;;;;;;;;;;;18.40;66.40;;;;;;5013445;28;19910;-69
2021/04/22 05:04:01;;;;;;;;;;;18.40;66.20;;;;;;5012481;28;20284;-68
2021/04/22 05:06:28;;;;;;;;;;;18.40;66.00;;;;;;5013375;28;19909;-69
2021/04/22 05:08:54;;;;;;;;;;;18.40;65.50;;;;;;5013185;28;19965;-68
2021/04/22 05:11:24;;;;;;;;;;;18.40;64.70;;;;;;5013123;28;20368;-68
2021/04/22 05:13:51;;;;;;;;;;;18.30;64.80;;;;;;5012328;28;19964;-69
2021/04/22 05:16:18;;;;;;;;;;;18.20;65.70;;;;;;5013223;28;19916;-67
2021/04/22 05:18:45;;;;;;;;;;;18.20;65.20;;;;;;5013027;28;20253;-69
2021/04/22 05:21:14;;;;;;;;;;;18.20;65.20;;;;;;5013191;28;19960;-69
2021/04/22 05:23:41;;;;;;;;;;;18.20;65.40;;;;;;5012956;28;19976;-70
2021/04/22 05:26:08;;;;;;;;;;;18.20;66.10;;;;;;5012558;28;20336;-68
2021/04/22 05:28:35;;;;;;;;;;;18.20;65.10;;;;;;5013087;28;19918;-69
2021/04/22 05:31:01;;;;;;;;;;;18.20;63.70;;;;;;4995464;28;20032;-70
2021/04/22 05:33:28;;;;;;;;;;;18.10;64.90;;;;;;5013170;28;19917;-70
2021/04/22 05:35:55;;;;;;;;;;;18.10;64.40;;;;;;5013310;28;19910;-69
2021/04/22 05:38:21;;;;;;;;;;;18.10;65.00;;;;;;5013179;28;19913;-68
2021/04/22 05:40:48;;;;;;;;;;;18.20;65.50;;;;;;5012823;28;19925;-71
2021/04/22 05:43:15;;;;;;;;;;;18.20;66.20;;;;;;5014562;28;19948;-70
2021/04/22 05:45:41;;;;;;;;;;;18.20;66.00;;;;;;5017021;28;20277;-70
2021/04/22 05:48:08;;;;;;;;;;;18.20;67.30;;;;;;5017064;28;20340;-71
2021/04/22 05:50:35;;;;;;;;;;;18.10;66.80;;;;;;5018894;28;20377;-70
2021/04/22 05:53:02;;;;;;;;;;;18.10;67.20;;;;;;5020390;28;19913;-72
2021/04/22 05:55:28;;;;;;;;;;;18.00;66.10;;;;;;5023735;28;19974;-71
2021/04/22 05:57:56;;;;;;;;;;;17.90;66.30;;;;;;5016948;28;19925;-71
2021/04/22 06:00:24;;;;;;;;;;;17.90;66.60;;;;;;4998999;28;20099;-70
2021/04/22 06:02:51;;;;;;;;;;;17.90;65.10;;;;;;5016351;28;19916;-71
2021/04/22 06:05:17;;;;;;;;;;;17.80;65.30;;;;;;5016315;28;19913;-71
2021/04/22 06:07:44;;;;;;;;;;;17.80;65.40;;;;;;5016312;28;20276;-70
2021/04/22 06:10:11;;;;;;;;;;;17.80;65.00;;;;;;5016598;28;19954;-70
2021/04/22 06:12:38;;;;;;;;;;;17.80;64.70;;;;;;5016407;28;19955;-68
2021/04/22 06:15:05;;;;;;;;;;;17.60;66.30;;;;;;4998642;28;19956;-68
2021/04/22 06:17:31;;;;;;;;;;;17.70;65.80;;;;;;5016420;28;19913;-69
2021/04/22 06:19:58;;;;;;;;;;;17.70;66.10;;;;;;5016145;28;19917;-69
2021/04/22 06:22:28;;;;;;;;;;;17.60;65.60;;;;;;5016734;28;20230;-70
2021/04/22 06:24:55;;;;;;;;;;;17.60;67.40;;;;;;5016528;28;20248;-70
2021/04/22 06:27:21;;;;;;;;;;;17.50;65.90;;;;;;5016563;28;20004;-70
2021/04/22 06:29:48;;;;;;;;;;;17.40;65.50;;;;;;5016284;28;19917;-69
2021/04/22 06:32:15;;;;;;;;;;;17.40;65.60;;;;;;5016234;28;20280;-68
2021/04/22 06:34:42;;;;;;;;;;;17.30;66.10;;;;;;5015883;28;19979;-69
2021/04/22 06:37:08;;;;;;;;;;;17.30;66.80;;;;;;5016341;28;20000;-72
2021/04/22 06:39:35;;;;;;;;;;;17.30;66.00;;;;;;5016570;28;19962;-71
2021/04/22 06:42:02;;;;;;;;;;;17.20;66.90;;;;;;5016123;28;19945;-69
2021/04/22 06:44:28;;;;;;;;;;;17.20;66.00;;;;;;5016121;28;19957;-70
2021/04/22 06:46:55;;;;;;;;;;;17.10;65.50;;;;;;5015611;28;19917;-70
2021/04/22 06:49:22;;;;;;;;;;;17.10;65.40;;;;;;5015514;28;19940;-69
2021/04/22 06:51:48;;;;;;;;;;;17.10;65.60;;;;;;5015571;28;19910;-70
2021/04/22 06:54:15;;;;;;;;;;;17.00;66.00;;;;;;5014796;28;19996;-68
2021/04/22 06:56:45;;;;;;;;;;;17.00;65.60;;;;;;5015787;28;20344;-71
2021/04/22 06:59:15;;;;;;;;;;;17.00;65.40;;;;;;5015513;28;20427;-70
2021/04/22 07:01:41;;;;;;;;;;;17.00;65.30;;;;;;5015642;28;19948;-70
2021/04/22 07:04:08;;;;;;;;;;;17.00;65.10;;;;;;5015467;28;20253;-70
2021/04/22 07:06:35;;;;;;;;;;;16.90;66.00;;;;;;5015504;28;20381;-71
2021/04/22 07:09:01;;;;;;;;;;;16.90;68.30;;;;;;5015297;28;20019;-70
2021/04/22 07:11:28;;;;;;;;;;;16.80;66.60;;;;;;4997922;28;20003;-69
2021/04/22 07:13:55;;;;;;;;;;;16.80;66.20;;;;;;5015507;28;20376;-70
2021/04/22 07:16:22;;;;;;;;;;;16.80;66.70;;;;;;5015630;28;20390;-71
2021/04/22 07:18:48;;;;;;;;;;;16.70;66.80;;;;;;5015342;28;19924;-71
2021/04/22 07:21:15;;;;;;;;;;;16.70;66.00;;;;;;5018905;28;19973;-71
2021/04/22 07:23:41;;;;;;;;;;;16.70;66.40;;;;;;5019938;28;20384;-70
2021/04/22 07:26:09;;;;;;;;;;;16.70;66.60;;;;;;5021877;28;19910;-71
2021/04/22 07:28:36;;;;;;;;;;;16.60;67.00;;;;;;5014964;28;19921;-71
2021/04/22 07:31:03;;;;;;;;;;;16.60;67.70;;;;;;5014758;28;19964;-71
2021/04/22 07:33:29;;;;;;;;;;;16.60;66.50;;;;;;5000788;28;20012;-71
2021/04/22 07:35:56;;;;;;;;;;;16.60;67.00;;;;;;4995400;28;19910;-69
2021/04/22 07:38:23;;;;;;;;;;;16.50;67.00;;;;;;4995226;28;19913;-71
2021/04/22 07:40:50;;;;;;;;;;;16.40;66.80;;;;;;4992016;28;19921;-72
2021/04/22 07:43:18;;;;;;;;;;;16.40;67.50;;;;;;4993239;28;19913;-70
2021/04/22 07:45:45;;;;;;;;;;;16.40;67.50;;;;;;4991682;28;19956;-71
2021/04/22 07:48:15;;;;;;;;;;;16.40;67.50;;;;;;4992283;28;19944;-71
2021/04/22 07:50:42;;;;;;;;;;;16.30;67.70;;;;;;4993005;28;19917;-69
2021/04/22 07:53:09;;;;;;;;;;;16.30;67.30;;;;;;4992941;28;19976;-71
2021/04/22 07:55:41;;;;;;;;;;;16.30;67.70;;;;;;4992443;28;20056;-70
2021/04/22 07:58:12;;;;;;;;;;;16.20;69.40;;;;;;4992919;28;19988;-70
2021/04/22 08:00:39;;;;;;;;;;;16.20;68.00;;;;;;4992870;28;19948;-70
2021/04/22 08:03:05;;;;;;;;;;;16.20;69.80;;;;;;4992411;28;19968;-70
2021/04/22 08:05:39;;;;;;;;;;;16.20;68.60;;;;;;4992770;28;19985;-69
2021/04/22 08:08:06;;;;;;;;;;;16.10;69.90;;;;;;4992379;28;20029;-69
2021/04/22 08:10:34;;;;;;;;;;;16.10;68.60;;;;;;4992169;28;19917;-70
2021/04/22 08:13:03;;;;;;;;;;;16.00;69.10;;;;;;4992485;28;20356;-69
2021/04/22 08:15:33;;;;;;;;;;;16.00;69.30;;;;;;4992556;28;19964;-70
2021/04/22 08:18:00;;;;;;;;;;;15.90;69.20;;;;;;4992245;28;20345;-71
2021/04/22 08:20:27;;;;;;;;;;;15.90;69.60;;;;;;4992202;28;19933;-69
2021/04/22 08:22:55;;;;;;;;;;;15.90;69.50;;;;;;4992362;28;19910;-70
2021/04/22 08:25:32;;;;;;;;;;;15.90;69.70;;;;;;4991765;28;19910;-70
2021/04/22 08:27:59;;;;;;;;;;;15.80;69.50;;;;;;4992179;28;19925;-69
2021/04/22 08:30:26;;;;;;;;;;;15.80;69.50;;;;;;4992420;28;19914;-71
2021/04/22 08:32:53;;;;;;;;;;;15.80;69.40;;;;;;4991771;28;19914;-70
2021/04/22 08:35:20;;;;;;;;;;;15.80;69.40;;;;;;4992329;28;19996;-69
2021/04/22 08:37:47;;;;;;;;;;;15.70;69.30;;;;;;4990984;28;19987;-68
2021/04/22 08:40:14;;;;;;;;;;;15.70;69.30;;;;;;4991683;28;20284;-69
2021/04/22 08:42:41;;;;;;;;;;;15.70;70.40;;;;;;4992892;28;19914;-70
2021/04/22 08:45:14;;;;;;;;;;;15.70;70.40;;;;;;4992579;28;19914;-70
2021/04/22 08:47:41;;;;;;;;;;;15.70;70.30;;;;;;4993069;28;19918;-70
2021/04/22 08:50:10;;;;;;;;;;;15.60;71.00;;;;;;4997321;28;19910;-70
2021/04/22 08:52:37;;;;;;;;;;;15.60;70.10;;;;;;4996455;28;19954;-68
2021/04/22 08:55:05;;;;;;;;;;;15.60;69.90;;;;;;4994648;28;19918;-71
2021/04/22 08:57:31;;;;;;;;;;;15.60;70.20;;;;;;4998242;28;19914;-69
2021/04/22 08:59:58;;;;;;;;;;;15.60;69.70;;;;;;5000126;28;19917;-68
2021/04/22 09:02:25;;;;;;;;;;;15.50;70.20;;;;;;5004252;28;19910;-71
2021/04/22 09:04:52;;;;;;;;;;;15.50;70.40;;;;;;5002574;28;20347;-71
2021/04/22 09:07:19;;;;;;;;;;;15.50;70.20;;;;;;5005869;28;19910;-70
2021/04/22 09:09:45;;;;;;;;;;;15.40;70.00;;;;;;5004780;28;19964;-70
2021/04/22 09:12:19;;;;;;;;;;;15.40;70.50;;;;;;5003412;28;19956;-69
2021/04/22 09:14:52;;;;;;;;;;;15.50;71.30;;;;;;5000700;28;19910;-69
2021/04/22 09:17:20;;;;;;;;;;;15.40;71.00;;;;;;5002867;28;19910;-69
2021/04/22 09:19:46;;;;;;;;;;;15.40;71.60;;;;;;4997567;28;19933;-68
2021/04/22 09:22:13;;;;;;;;;;;15.40;71.00;;;;;;4997437;28;19910;-67
2021/04/22 09:24:40;;;;;;;;;;;15.30;71.30;;;;;;4997708;28;19910;-69
2021/04/22 09:27:15;;;;;;;;;;;15.30;71.60;;;;;;4997446;28;19910;-67
2021/04/22 09:29:50;;;;;;;;;;;15.30;72.10;;;;;;4997700;28;19910;-68
2021/04/22 09:32:23;;;;;;;;;;;15.20;71.10;;;;;;4997393;28;20356;-69
2021/04/22 09:34:52;;;;;;;;;;;15.30;72.70;;;;;;4996169;28;19914;-69
2021/04/22 09:37:21;;;;;;;;;;;15.30;71.30;;;;;;4997594;28;19916;-69
2021/04/22 09:39:48;;;;;;;;;;;15.30;71.30;;;;;;4997360;28;19945;-68
2021/04/22 09:42:15;;;;;;;;;;;15.20;71.40;;;;;;4997311;28;20357;-68
2021/04/22 09:44:51;;;;;;;;;;;15.20;71.50;;;;;;4997209;28;19913;-70
2021/04/22 09:47:24;;;;;;;;;;;15.20;72.10;;;;;;4997256;28;20411;-69
2021/04/22 09:50:11;;;;;;;;;;;15.20;71.90;;;;;;4996038;28;20331;-70
2021/04/22 09:52:40;;;;;;;;;;;15.20;72.20;;;;;;4997279;28;19910;-70
2021/04/22 09:55:16;;;;;;;;;;;15.10;71.50;;;;;;4997234;28;19910;-68
2021/04/22 09:57:46;;;;;;;;;;;15.10;72.10;;;;;;4995956;28;19980;-70
2021/04/22 10:00:27;;;;;;;;;;;15.10;72.10;;;;;;4997114;28;19948;-70
2021/04/22 10:02:56;;;;;;;;;;;15.10;72.60;;;;;;4996694;28;19916;-69
2021/04/22 10:05:27;;;;;;;;;;;15.10;72.70;;;;;;4997110;28;19910;-69
2021/04/22 10:08:13;;;;;;;;;;;15.00;72.20;;;;;;4996920;28;19913;-69
2021/04/22 10:10:41;;;;;;;;;;;15.00;73.20;;;;;;4997116;28;19941;-69
2021/04/22 10:13:09;;;;;;;;;;;15.00;72.20;;;;;;4996972;28;19910;-68
2021/04/22 10:15:48;;;;;;;;;;;15.00;74.20;;;;;;4997252;28;19914;-67
2021/04/22 10:18:15;;;;;;;;;;;15.00;72.20;;;;;;4999822;28;20320;-68
2021/04/22 10:20:41;;;;;;;;;;;15.00;72.80;;;;;;5001645;28;19913;-67
2021/04/22 10:23:10;;;;;;;;;;;15.00;72.40;;;;;;5004271;28;20372;-68
2021/04/22 10:25:41;;;;;;;;;;;15.00;73.50;;;;;;4997196;28;19910;-68
2021/04/22 10:28:13;;;;;;;;;;;15.00;73.20;;;;;;4996932;28;19948;-67
2021/04/22 10:30:49;;;;;;;;;;;15.00;73.40;;;;;;4995341;28;19956;-68
2021/04/22 10:33:19;;;;;;;;;;;14.90;72.60;;;;;;4996416;28;19984;-69
2021/04/22 10:35:47;;;;;;;;;;;14.90;72.80;;;;;;4996636;28;19956;-68
2021/04/22 10:38:14;;;;;;;;;;;14.90;75.40;;;;;;4994721;28;20004;-68
2021/04/22 10:40:42;;;;;;;;;;;14.80;74.00;;;;;;4996343;28;19922;-70
2021/04/22 10:43:22;;;;;;;;;;;14.80;73.90;;;;;;4996320;28;19914;-69
2021/04/22 10:45:49;;;;;;;;;;;14.80;73.60;;;;;;4996381;28;19910;-69
2021/04/22 10:48:16;;;;;;;;;;;14.70;73.10;;;;;;4996103;28;19918;-70
2021/04/22 10:50:45;;;;;;;;;;;14.70;73.90;;;;;;4996142;28;19996;-71
2021/04/22 10:53:13;;;;;;;;;;;14.60;74.20;;;;;;4994721;28;19949;-69
2021/04/22 10:55:41;;;;;;;;;;;14.70;74.90;;;;;;4996249;28;19910;-70
2021/04/22 10:58:19;;;;;;;;;;;14.70;75.90;;;;;;4996023;28;19921;-71
2021/04/22 11:00:48;;;;;;;;;;;14.60;74.50;;;;;;4995833;28;20000;-70
2021/04/22 11:03:28;;;;;;;;;;;14.60;74.30;;;;;;4995751;28;19910;-71
2021/04/22 11:05:58;;;;;;;;;;;14.50;74.20;;;;;;4995905;28;19929;-70
2021/04/22 11:08:36;;;;;;;;;;;14.60;75.40;;;;;;4996024;28;19941;-71
2021/04/22 11:11:15;;;;;;;;;;;14.50;76.10;;;;;;4995547;28;20373;-70
2021/04/22 11:13:42;;;;;;;;;;;14.50;76.30;;;;;;4995976;28;19920;-69
2021/04/22 11:16:09;;;;;;;;;;;14.50;74.80;;;;;;4993529;28;19921;-70
2021/04/22 11:18:44;;;;;;;;;;;14.40;75.90;;;;;;4996168;28;19909;-70
2021/04/22 11:21:24;;;;;;;;;;;14.40;74.10;;;;;;4998058;28;20419;-71
2021/04/22 11:23:51;;;;;;;;;;;14.40;74.60;;;;;;4997009;28;20369;-71
2021/04/22 11:26:22;;;;;;;;;;;14.40;75.40;;;;;;4996708;28;19917;-71
2021/04/22 11:28:49;;;;;;;;;;;14.40;74.60;;;;;;4995331;28;19921;-68
2021/04/22 11:31:19;;;;;;;;;;;14.40;75.80;;;;;;4995647;28;19910;-70
2021/04/22 11:33:46;;;;;;;;;;;14.40;74.90;;;;;;4996490;28;19917;-68
2021/04/22 11:36:16;;;;;;;;;;;14.40;74.30;;;;;;5002704;28;20383;-70
2021/04/22 11:39:06;;;;;;;;;;;14.30;74.50;;;;;;4999931;28;20025;-69
2021/04/22 11:41:38;;;;;;;;;;;14.40;74.50;;;;;;4998462;28;20089;-69
2021/04/22 11:44:12;;;;;;;;;;;14.40;74.70;;;;;;4998879;28;19921;-68
2021/04/22 11:46:41;;;;;;;;;;;14.30;75.10;;;;;;5001120;28;19910;-68
2021/04/22 11:49:08;;;;;;;;;;;14.40;74.70;;;;;;4996273;28;20397;-69
2021/04/22 11:51:36;;;;;;;;;;;14.30;75.10;;;;;;4996487;28;20360;-66
2021/04/22 11:54:03;;;;;;;;;;;14.30;73.80;;;;;;4995638;28;19909;-68
2021/04/22 11:56:30;;;;;;;;;;;14.30;74.20;;;;;;4994635;28;19910;-67
2021/04/22 11:58:57;;;;;;;;;;;14.30;74.10;;;;;;4994692;28;19910;-68
2021/04/22 12:01:23;;;;;;;;;;;14.30;75.90;;;;;;4994700;28;20012;-67
2021/04/22 12:03:50;;;;;;;;;;;14.40;75.00;;;;;;4995031;28;20276;-67
2021/04/22 12:06:21;;;;;;;;;;;14.30;74.20;;;;;;4994648;28;20361;-69
2021/04/22 12:08:50;;;;;;;;;;;14.30;74.40;;;;;;4994737;28;20391;-69
2021/04/22 12:11:19;;;;;;;;;;;14.30;74.10;;;;;;4994060;28;20296;-71
2021/04/22 12:13:46;;;;;;;;;;;14.20;75.00;;;;;;4994678;28;19964;-68
2021/04/22 12:16:15;;;;;;;;;;;14.20;74.90;;;;;;4994391;28;19964;-69
2021/04/22 12:18:43;;;;;;;;;;;14.20;75.00;;;;;;4994466;28;19914;-68
2021/04/22 12:21:11;;;;;;;;;;;14.20;74.50;;;;;;4994930;28;19917;-69
2021/04/22 12:23:42;;;;;;;;;;;14.20;76.00;;;;;;4995318;28;19917;-70
2021/04/22 12:26:17;;;;;;;;;;;14.10;75.40;;;;;;4995638;28;19917;-69
2021/04/22 12:28:54;;;;;;;;;;;14.10;75.60;;;;;;4994473;28;19918;-69
2021/04/22 12:31:43;;;;;;;;;;;14.10;77.10;;;;;;4995397;28;19917;-69
2021/04/22 12:34:12;;;;;;;;;;;14.20;77.20;;;;;;4990190;28;20277;-69
2021/04/22 12:36:41;;;;;;;;;;;14.10;75.90;;;;;;4999596;28;19964;-70
2021/04/22 12:39:22;;;;;;;;;;;14.10;75.20;;;;;;4996098;28;20089;-69
2021/04/22 12:41:48;;;;;;;;;;;14.10;76.10;;;;;;4995224;28;20300;-68
2021/04/22 12:44:19;;;;;;;;;;;14.10;75.60;;;;;;4995123;28;19910;-69
2021/04/22 12:46:45;;;;;;;;;;;14.10;76.00;;;;;;4995127;28;19909;-70
2021/04/22 12:49:16;;;;;;;;;;;14.10;76.40;;;;;;4995319;28;19922;-69
2021/04/22 12:52:02;;;;;;;;;;;14.00;75.90;;;;;;4993924;28;19910;-70
2021/04/22 12:54:29;;;;;;;;;;;14.00;77.50;;;;;;4993417;28;19917;-70
2021/04/22 12:56:57;;;;;;;;;;;14.00;76.70;;;;;;4993709;28;19914;-68
2021/04/22 12:59:24;;;;;;;;;;;14.00;76.30;;;;;;4993673;28;19956;-68
2021/04/22 13:01:50;;;;;;;;;;;14.00;76.80;;;;;;4993854;28;19916;-68
2021/04/22 13:04:20;;;;;;;;;;;14.00;76.80;;;;;;4993793;28;19917;-68
2021/04/22 13:06:49;;;;;;;;;;;14.00;77.90;;;;;;4993799;28;20026;-70
2021/04/22 13:09:18;;;;;;;;;;;14.00;76.20;;;;;;4992840;28;20355;-68
2021/04/22 13:11:47;;;;;;;;;;;13.90;77.20;;;;;;4992505;28;19920;-68
2021/04/22 13:14:14;;;;;;;;;;;13.90;76.70;;;;;;4993777;28;19960;-70
2021/04/22 13:16:51;;;;;;;;;;;13.90;77.10;;;;;;4994236;28;19956;-70
2021/04/22 13:19:21;;;;;;;;;;;13.90;76.30;;;;;;4998488;28;19909;-69
2021/04/22 13:21:58;;;;;;;;;;;13.90;76.30;;;;;;4999298;28;19957;-70
2021/04/22 13:24:27;;;;;;;;;;;13.80;76.40;;;;;;4995720;28;19964;-69
2021/04/22 13:26:59;;;;;;;;;;;13.80;76.10;;;;;;4993236;28;19910;-69
2021/04/22 13:29:28;;;;;;;;;;;13.80;76.00;;;;;;4993058;28;19977;-70
2021/04/22 13:31:58;;;;;;;;;;;13.80;76.40;;;;;;4992384;28;20353;-70
2021/04/22 13:34:26;;;;;;;;;;;13.80;77.80;;;;;;4993524;28;19921;-68
2021/04/22 13:36:55;;;;;;;;;;;13.80;76.10;;;;;;4993438;28;20360;-69
2021/04/22 13:39:28;;;;;;;;;;;13.80;76.00;;;;;;4992988;28;19914;-68
2021/04/22 13:41:54;;;;;;;;;;;13.80;76.10;;;;;;4993597;28;19910;-70
2021/04/22 13:44:25;;;;;;;;;;;13.70;75.80;;;;;;4993573;28;19914;-69
2021/04/22 13:46:56;;;;;;;;;;;13.70;76.10;;;;;;4993248;28;20025;-70
2021/04/22 13:49:24;;;;;;;;;;;13.70;75.50;;;;;;4993518;28;19925;-68
2021/04/22 13:51:51;;;;;;;;;;;13.70;75.70;;;;;;4993434;28;19917;-68
2021/04/22 13:54:20;;;;;;;;;;;13.60;75.80;;;;;;4993468;28;19910;-70
2021/04/22 13:56:47;;;;;;;;;;;13.70;76.50;;;;;;4993267;28;19916;-70
2021/04/22 13:59:23;;;;;;;;;;;13.70;75.50;;;;;;4993472;28;19916;-68
2021/04/22 14:01:59;;;;;;;;;;;13.70;75.70;;;;;;4993314;28;19910;-70
2021/04/22 14:04:26;;;;;;;;;;;13.70;75.60;;;;;;4995128;28;19910;-70
2021/04/22 14:06:53;;;;;;;;;;;13.60;75.70;;;;;;4996959;28;20009;-67
2021/04/22 14:09:23;;;;;;;;;;;13.70;76.30;;;;;;4997052;28;19925;-68
2021/04/22 14:11:50;;;;;;;;;;;13.70;77.80;;;;;;4997053;28;19910;-68
2021/04/22 14:14:18;;;;;;;;;;;13.70;75.80;;;;;;4996749;28;20328;-68
2021/04/22 14:16:46;;;;;;;;;;;13.70;76.80;;;;;;4996372;28;19910;-70
2021/04/22 14:19:19;;;;;;;;;;;13.70;76.50;;;;;;4996717;28;19910;-68
2021/04/22 14:21:46;;;;;;;;;;;13.70;77.00;;;;;;4996845;28;20482;-69
2021/04/22 14:24:13;;;;;;;;;;;13.60;76.10;;;;;;4996609;28;19910;-69